createdAt,value
2023-05-12T00:01:46.776Z,13.05
2023-05-12T00:04:19.554Z,12.30
2023-05-12T00:06:49.775Z,12.10
2023-05-12T00:09:19.525Z,12.52
2023-05-12T00:11:49.762Z,12.48
2023-05-12T00:14:20.010Z,13.08
2023-05-12T00:16:52.372Z,12.86
2023-05-12T00:19:24.911Z,13.08
2023-05-12T00:21:54.857Z,12.97
2023-05-12T00:24:24.704Z,13.08
2023-05-12T00:26:54.776Z,12.21
2023-05-12T00:29:24.561Z,11.99
2023-05-12T00:31:54.361Z,11.87
2023-05-12T00:34:26.775Z,12.05
2023-05-12T00:36:56.589Z,12.76
2023-05-12T00:39:26.404Z,12.95
2023-05-12T00:41:58.480Z,12.89
2023-05-12T00:44:28.400Z,13.31
2023-05-12T00:46:58.148Z,13.83
2023-05-12T00:49:30.840Z,14.12
2023-05-12T00:52:01.991Z,13.65
2023-05-12T00:54:33.383Z,13.16
2023-05-12T00:57:03.318Z,13.39
2023-05-12T00:59:34.072Z,13.45
2023-05-12T01:02:03.902Z,13.28
2023-05-12T01:04:37.214Z,13.26
2023-05-12T01:07:12.862Z,13.40
2023-05-12T01:09:42.734Z,13.88
2023-05-12T01:12:13.520Z,13.96
2023-05-12T01:14:44.213Z,14.13
2023-05-12T01:17:16.299Z,13.36
2023-05-12T01:19:51.382Z,13.03
2023-05-12T01:22:21.965Z,13.09
2023-05-12T01:24:55.391Z,13.13
2023-05-12T01:27:29.188Z,13.02
2023-05-12T01:30:03.455Z,13.55
2023-05-12T01:32:37.531Z,13.51
2023-05-12T01:35:09.318Z,13.95
2023-05-12T01:37:41.606Z,13.78
2023-05-12T01:40:12.452Z,13.55
2023-05-12T01:42:45.769Z,13.48
2023-05-12T01:45:16.049Z,13.83
2023-05-12T01:47:46.192Z,13.76
2023-05-12T01:50:16.126Z,13.55
2023-05-12T01:52:46.458Z,13.65
2023-05-12T01:55:18.355Z,13.22
2023-05-12T01:58:02.213Z,14.00
2023-05-12T02:00:32.490Z,13.59
2023-05-12T02:03:04.099Z,13.31
2023-05-12T02:05:34.618Z,13.86
2023-05-12T02:08:05.300Z,14.20
2023-05-12T02:10:35.213Z,13.42
2023-05-12T02:13:07.683Z,13.24
2023-05-12T02:15:38.264Z,12.48
2023-05-12T02:18:11.073Z,12.14
2023-05-12T02:20:42.258Z,12.66
2023-05-12T02:23:12.497Z,13.13
2023-05-12T02:25:42.840Z,13.04
2023-05-12T02:28:16.038Z,12.68
2023-05-12T02:30:48.965Z,12.46
2023-05-12T02:33:19.752Z,11.60
2023-05-12T02:35:50.390Z,12.11
2023-05-12T02:38:20.229Z,12.56
2023-05-12T02:40:50.307Z,12.09
2023-05-12T02:43:22.772Z,12.31
2023-05-12T02:45:52.514Z,12.60
2023-05-12T02:48:22.201Z,12.58
2023-05-12T02:50:51.842Z,12.69
2023-05-12T02:53:21.703Z,12.59
2023-05-12T02:55:51.792Z,12.52
2023-05-12T02:58:24.279Z,13.06
2023-05-12T03:01:02.984Z,12.78
2023-05-12T03:03:36.842Z,12.55
2023-05-12T03:06:07.656Z,12.38
2023-05-12T03:08:38.062Z,12.74
2023-05-12T03:11:08.124Z,12.11
2023-05-12T03:13:40.708Z,12.40
2023-05-12T03:16:10.691Z,12.07
2023-05-12T03:18:40.492Z,11.78
2023-05-12T03:21:10.294Z,11.69
2023-05-12T03:23:39.985Z,12.34
2023-05-12T03:26:09.745Z,12.32
2023-05-12T03:28:42.042Z,11.85
2023-05-12T03:31:11.935Z,11.92
2023-05-12T03:33:41.662Z,11.84
2023-05-12T03:36:11.999Z,12.19
2023-05-12T03:38:41.791Z,12.16
2023-05-12T03:41:11.553Z,11.83
2023-05-12T03:43:44.504Z,11.88
2023-05-12T03:46:17.289Z,12.32
2023-05-12T03:48:47.084Z,12.42
2023-05-12T03:51:16.938Z,12.32
2023-05-12T03:53:47.964Z,12.03
2023-05-12T03:56:17.701Z,11.66
2023-05-12T03:58:49.990Z,11.75
2023-05-12T04:01:20.043Z,12.34
2023-05-12T04:03:49.810Z,12.17
2023-05-12T04:06:19.711Z,11.98
2023-05-12T04:08:49.482Z,12.11
2023-05-12T04:11:19.148Z,11.69
2023-05-12T04:13:51.432Z,11.91
2023-05-12T04:16:21.194Z,11.97
2023-05-12T04:18:51.964Z,12.42
2023-05-12T04:21:21.717Z,12.35
2023-05-12T04:23:54.281Z,11.84
2023-05-12T04:26:27.129Z,11.64
2023-05-12T04:28:59.458Z,12.26
2023-05-12T04:31:29.170Z,12.19
2023-05-12T04:34:00.055Z,12.16
2023-05-12T04:36:30.311Z,11.83
2023-05-12T04:39:00.036Z,11.92
2023-05-12T04:41:29.971Z,11.83
2023-05-12T04:44:02.279Z,12.13
2023-05-12T04:46:31.996Z,12.33
2023-05-12T04:49:02.826Z,12.21
2023-05-12T04:51:32.856Z,12.05
2023-05-12T04:54:02.591Z,12.07
2023-05-12T04:56:32.407Z,12.25
2023-05-12T04:59:04.933Z,12.19
2023-05-12T05:01:34.970Z,12.81
2023-05-12T05:04:04.816Z,13.47
2023-05-12T05:06:34.558Z,12.50
2023-05-12T05:09:09.695Z,12.74
2023-05-12T05:11:39.414Z,12.84
2023-05-12T05:14:12.084Z,13.11
2023-05-12T05:16:41.838Z,13.32
2023-05-12T05:19:20.062Z,13.14
2023-05-12T05:21:50.365Z,12.96
2023-05-12T05:24:20.069Z,13.01
2023-05-12T05:26:50.121Z,13.18
2023-05-12T05:29:22.614Z,12.69
2023-05-12T05:31:52.731Z,13.38
2023-05-12T05:34:22.564Z,12.73
2023-05-12T05:36:52.510Z,12.90
2023-05-12T05:39:25.016Z,13.25
2023-05-12T05:41:54.919Z,13.42
2023-05-12T05:44:27.709Z,13.18
2023-05-12T05:46:58.618Z,13.45
2023-05-12T05:49:29.209Z,13.53
2023-05-12T05:52:00.224Z,13.24
2023-05-12T05:54:30.521Z,13.42
2023-05-12T05:57:02.316Z,13.30
2023-05-12T05:59:35.479Z,13.50
2023-05-12T06:02:05.363Z,13.42
2023-05-12T06:04:35.204Z,13.79
2023-05-12T06:07:04.899Z,13.98
2023-05-12T06:09:35.124Z,14.05
2023-05-12T06:12:04.869Z,13.81
2023-05-12T06:14:38.191Z,14.53
2023-05-12T06:17:08.288Z,14.79
2023-05-12T06:19:38.397Z,14.77
2023-05-12T06:22:08.423Z,15.08
2023-05-12T06:24:38.768Z,15.02
2023-05-12T06:27:08.889Z,14.60
2023-05-12T06:29:41.136Z,15.31
2023-05-12T06:32:11.473Z,14.46
2023-05-12T06:34:41.172Z,15.00
2023-05-12T06:37:11.123Z,14.50
2023-05-12T06:39:40.839Z,14.62
2023-05-12T06:42:11.679Z,14.46
2023-05-12T06:44:47.432Z,14.67
2023-05-12T06:47:17.098Z,14.72
2023-05-12T06:49:46.763Z,14.95
2023-05-12T06:52:20.724Z,16.17
2023-05-12T06:54:50.378Z,15.70
2023-05-12T06:57:20.133Z,15.96
2023-05-12T06:59:52.512Z,15.88
2023-05-12T07:02:22.263Z,16.40
2023-05-12T07:04:51.973Z,16.63
2023-05-12T07:07:21.790Z,16.27
2023-05-12T07:09:51.500Z,16.74
2023-05-12T07:12:21.200Z,15.95
2023-05-12T07:14:53.422Z,16.38
2023-05-12T07:17:23.126Z,16.53
2023-05-12T07:19:52.947Z,16.30
2023-05-12T07:22:23.670Z,16.72
2023-05-12T07:24:53.466Z,16.52
2023-05-12T07:27:23.182Z,16.27
2023-05-12T07:29:55.376Z,15.99
2023-05-12T07:32:25.625Z,16.26
2023-05-12T07:34:55.333Z,17.17
2023-05-12T07:37:25.030Z,16.79
2023-05-12T07:39:54.823Z,17.30
2023-05-12T07:42:24.749Z,16.48
2023-05-12T07:44:56.973Z,17.06
2023-05-12T07:47:26.659Z,17.49
2023-05-12T07:49:56.310Z,17.81
2023-05-12T07:52:26.027Z,17.53
2023-05-12T07:54:56.411Z,17.70
2023-05-12T07:57:26.081Z,17.92
2023-05-12T07:59:59.586Z,17.87
2023-05-12T08:02:29.370Z,17.57
2023-05-12T08:04:59.131Z,17.32
2023-05-12T08:07:28.794Z,17.38
2023-05-12T08:09:58.509Z,18.04
2023-05-12T08:12:28.269Z,17.56
2023-05-12T08:15:00.673Z,17.46
2023-05-12T08:17:30.401Z,17.59
2023-05-12T08:20:00.038Z,17.20
2023-05-12T08:22:29.805Z,17.61
2023-05-12T08:24:59.433Z,18.65
2023-05-12T08:27:29.733Z,20.35
2023-05-12T08:30:02.112Z,20.12
2023-05-12T08:32:35.090Z,21.18
2023-05-12T08:35:04.955Z,20.49
2023-05-12T08:37:35.220Z,21.74
2023-05-12T08:40:05.464Z,19.79
2023-05-12T08:42:43.964Z,19.43
2023-05-12T08:45:16.927Z,19.34
2023-05-12T08:47:47.541Z,18.45
2023-05-12T08:50:19.125Z,18.06
2023-05-12T08:52:49.041Z,17.52
2023-05-12T08:55:20.763Z,17.46
2023-05-12T08:57:51.673Z,17.25
2023-05-12T09:00:26.451Z,17.29
2023-05-12T09:02:57.316Z,18.02
2023-05-12T09:05:29.995Z,18.33
2023-05-12T09:08:00.652Z,18.31
2023-05-12T09:10:35.199Z,17.79
2023-05-12T09:13:16.374Z,18.23
2023-05-12T09:15:52.837Z,18.28
2023-05-12T09:18:22.606Z,18.53
2023-05-12T09:20:52.365Z,18.92
2023-05-12T09:23:23.805Z,18.61
2023-05-12T09:26:02.269Z,19.12
2023-05-12T09:28:39.971Z,18.78
2023-05-12T09:31:21.369Z,19.08
2023-05-12T09:33:51.465Z,18.29
2023-05-12T09:36:21.753Z,18.33
2023-05-12T09:39:04.881Z,18.60
2023-05-12T09:41:37.840Z,19.22
2023-05-12T09:44:08.784Z,19.63
2023-05-12T09:46:42.658Z,19.48
2023-05-12T09:49:12.350Z,19.38
2023-05-12T09:51:43.312Z,19.53
2023-05-12T09:54:13.031Z,19.77
2023-05-12T09:56:44.090Z,20.09
2023-05-12T09:59:15.462Z,20.54
2023-05-12T10:01:48.041Z,19.49
2023-05-12T10:04:18.236Z,19.20
2023-05-12T10:06:48.543Z,19.93
2023-05-12T10:09:23.737Z,20.20
2023-05-12T10:11:54.573Z,20.22
2023-05-12T10:14:25.502Z,20.63
2023-05-12T10:16:58.799Z,20.42
2023-05-12T10:19:29.588Z,19.95
2023-05-12T10:21:59.968Z,19.81
2023-05-12T10:24:30.667Z,20.37
2023-05-12T10:27:01.484Z,20.22
2023-05-12T10:29:33.191Z,19.78
2023-05-12T10:32:06.585Z,20.30
2023-05-12T10:34:37.762Z,20.36
2023-05-12T10:37:11.152Z,20.24
2023-05-12T10:39:50.140Z,20.97
2023-05-12T10:42:26.038Z,21.42
2023-05-12T10:44:57.516Z,21.55
2023-05-12T10:47:39.977Z,21.01
2023-05-12T10:50:14.076Z,19.65
2023-05-12T10:52:44.426Z,20.08
2023-05-12T10:55:17.047Z,20.52
2023-05-12T10:57:53.542Z,20.85
2023-05-12T11:00:29.089Z,21.21
2023-05-12T11:03:09.977Z,21.26
2023-05-12T11:05:40.773Z,20.84
2023-05-12T11:08:11.784Z,21.24
2023-05-12T11:10:44.982Z,21.03
2023-05-12T11:13:14.932Z,21.44
2023-05-12T11:15:46.940Z,21.01
2023-05-12T11:18:23.222Z,20.69
2023-05-12T11:20:53.717Z,21.63
2023-05-12T11:23:29.223Z,20.78
2023-05-12T11:25:59.318Z,21.16
2023-05-12T11:28:29.228Z,20.76
2023-05-12T11:30:59.050Z,21.49
2023-05-12T11:33:31.419Z,21.56
2023-05-12T11:36:01.321Z,21.39
2023-05-12T11:38:31.029Z,21.65
2023-05-12T11:41:00.838Z,21.21
2023-05-12T11:43:34.017Z,21.00
2023-05-12T11:46:03.851Z,21.42
2023-05-12T11:48:39.023Z,20.93
2023-05-12T11:51:08.887Z,21.63
2023-05-12T11:53:43.317Z,21.78
2023-05-12T11:56:20.800Z,21.36
2023-05-12T11:59:00.959Z,21.03
2023-05-12T12:01:30.806Z,21.34
2023-05-12T12:04:03.432Z,21.21
2023-05-12T12:06:33.210Z,21.23
2023-05-12T12:09:03.448Z,21.51
2023-05-12T12:11:37.414Z,20.89
2023-05-12T12:14:07.428Z,21.26
2023-05-12T12:16:37.225Z,20.97
2023-05-12T12:19:09.833Z,21.33
2023-05-12T12:21:40.025Z,21.75
2023-05-12T12:24:09.927Z,21.91
2023-05-12T12:26:39.812Z,21.41
2023-05-12T12:29:09.713Z,21.49
2023-05-12T12:31:39.593Z,21.82
2023-05-12T12:34:12.182Z,21.80
2023-05-12T12:36:42.004Z,21.77
2023-05-12T12:39:12.766Z,22.21
2023-05-12T12:41:43.808Z,22.04
2023-05-12T12:44:13.618Z,22.00
2023-05-12T12:46:43.397Z,22.47
2023-05-12T12:49:15.889Z,21.65
2023-05-12T12:51:47.008Z,22.11
2023-05-12T12:54:17.731Z,21.84
2023-05-12T12:56:47.453Z,22.48
2023-05-12T12:59:17.225Z,21.77
2023-05-12T13:01:47.017Z,21.92
2023-05-12T13:04:23.154Z,22.28
2023-05-12T13:06:53.032Z,22.29
2023-05-12T13:09:23.127Z,22.06
2023-05-12T13:11:53.130Z,21.81
2023-05-12T13:14:23.149Z,21.55
2023-05-12T13:16:53.131Z,22.36
2023-05-12T13:19:25.609Z,22.25
2023-05-12T13:21:55.675Z,22.04
2023-05-12T13:24:25.568Z,22.14
2023-05-12T13:26:55.551Z,21.92
2023-05-12T13:29:25.268Z,22.00
2023-05-12T13:31:55.006Z,21.66
2023-05-12T13:34:27.569Z,22.45
2023-05-12T13:36:57.404Z,22.48
2023-05-12T13:39:27.720Z,22.72
2023-05-12T13:41:57.385Z,22.83
2023-05-12T13:44:27.722Z,23.02
2023-05-12T13:46:57.462Z,22.38
2023-05-12T13:49:29.845Z,23.06
2023-05-12T13:51:59.592Z,22.73
2023-05-12T13:54:29.422Z,22.66
2023-05-12T13:56:59.236Z,21.87
2023-05-12T13:59:31.044Z,22.33
2023-05-12T14:02:01.006Z,22.45
2023-05-12T14:04:33.664Z,22.20
2023-05-12T14:07:03.759Z,22.37
2023-05-12T14:09:34.083Z,22.08
2023-05-12T14:12:04.478Z,22.08
2023-05-12T14:14:34.146Z,22.23
2023-05-12T14:17:04.085Z,21.98
2023-05-12T14:19:36.534Z,21.27
2023-05-12T14:22:15.574Z,21.45
2023-05-12T14:24:55.895Z,21.77
2023-05-12T14:27:26.179Z,21.56
2023-05-12T14:29:55.905Z,21.93
2023-05-12T14:32:25.752Z,22.45
2023-05-12T14:34:58.136Z,21.93
2023-05-12T14:37:28.231Z,21.95
2023-05-12T14:39:58.090Z,21.71
2023-05-12T14:42:29.602Z,22.25
2023-05-12T14:44:59.330Z,22.12
2023-05-12T14:47:29.280Z,22.02
2023-05-12T14:50:01.645Z,22.78
2023-05-12T14:52:34.091Z,22.17
2023-05-12T14:55:04.179Z,21.67
2023-05-12T14:57:35.872Z,22.25
2023-05-12T15:00:06.204Z,22.21
2023-05-12T15:02:36.082Z,22.12
2023-05-12T15:05:10.078Z,21.88
2023-05-12T15:07:40.520Z,22.01
2023-05-12T15:10:11.272Z,21.74
2023-05-12T15:12:41.019Z,21.30
2023-05-12T15:15:12.577Z,21.62
2023-05-12T15:17:42.794Z,21.94
2023-05-12T15:20:15.517Z,21.96
2023-05-12T15:22:45.832Z,21.93
2023-05-12T15:25:15.864Z,22.29
2023-05-12T15:27:45.705Z,21.87
2023-05-12T15:30:16.954Z,21.68
2023-05-12T15:32:46.848Z,22.07
2023-05-12T15:35:19.418Z,21.77
2023-05-12T15:37:49.417Z,21.82
2023-05-12T15:40:19.364Z,21.71
2023-05-12T15:42:49.722Z,21.98
2023-05-12T15:45:19.786Z,22.29
2023-05-12T15:47:49.824Z,22.08
2023-05-12T15:52:53.103Z,21.66
2023-05-12T15:55:23.381Z,21.79
2023-05-12T15:57:53.860Z,22.11
2023-05-12T16:00:23.777Z,21.96
2023-05-12T16:02:54.998Z,21.66
2023-05-12T16:05:27.383Z,21.64
2023-05-12T16:07:57.651Z,21.67
2023-05-12T16:10:27.478Z,21.30
2023-05-12T16:12:57.372Z,21.04
2023-05-12T16:15:27.516Z,20.96
2023-05-12T16:17:57.494Z,21.41
2023-05-12T16:20:30.026Z,20.91
2023-05-12T16:22:59.833Z,21.18
2023-05-12T16:25:29.663Z,20.81
2023-05-12T16:27:59.692Z,21.11
2023-05-12T16:30:29.623Z,20.85
2023-05-12T16:32:59.512Z,21.33
2023-05-12T16:35:32.174Z,21.14
2023-05-12T16:38:02.306Z,21.30
2023-05-12T16:40:32.073Z,21.22
2023-05-12T16:43:02.251Z,21.15
2023-05-12T16:45:31.995Z,21.11
2023-05-12T16:48:01.806Z,20.84
2023-05-12T16:50:37.116Z,20.20
2023-05-12T16:53:07.298Z,20.32
2023-05-12T16:55:36.946Z,20.35
2023-05-12T16:58:07.347Z,20.40
2023-05-12T17:00:38.189Z,20.72
2023-05-12T17:03:09.207Z,20.53
2023-05-12T17:05:41.966Z,20.49
2023-05-12T17:08:11.743Z,20.56
2023-05-12T17:10:41.560Z,20.48
2023-05-12T17:13:11.562Z,20.47
2023-05-12T17:15:42.117Z,20.57
2023-05-12T17:18:13.083Z,20.30
2023-05-12T17:20:45.435Z,20.30
2023-05-12T17:23:15.746Z,20.39
2023-05-12T17:25:45.512Z,20.53
2023-05-12T17:28:15.301Z,20.47
2023-05-12T17:30:45.986Z,20.32
2023-05-12T17:33:16.011Z,20.38
2023-05-12T17:36:03.895Z,20.37
2023-05-12T17:38:39.411Z,20.36
2023-05-12T17:41:09.179Z,20.30
2023-05-12T17:43:38.984Z,20.02
2023-05-12T17:46:09.356Z,20.20
2023-05-12T17:48:39.246Z,20.06
2023-05-12T17:51:11.810Z,20.07
2023-05-12T17:53:41.656Z,19.80
2023-05-12T17:56:11.683Z,19.98
2023-05-12T17:58:41.851Z,19.76
2023-05-12T18:01:11.647Z,19.52
2023-05-12T18:03:41.495Z,19.64
2023-05-12T18:06:15.970Z,19.69
2023-05-12T18:08:46.747Z,19.97
2023-05-12T18:11:16.658Z,19.75
2023-05-12T18:13:46.597Z,19.58
2023-05-12T18:16:28.007Z,19.65
2023-05-12T18:18:59.080Z,19.43
2023-05-12T18:21:31.451Z,19.17
2023-05-12T18:24:01.780Z,19.11
2023-05-12T18:26:31.848Z,19.05
2023-05-12T18:29:01.748Z,19.14
2023-05-12T18:31:31.721Z,19.30
2023-05-12T18:34:01.702Z,18.88
2023-05-12T18:36:34.238Z,18.93
2023-05-12T18:39:04.567Z,19.05
2023-05-12T18:41:34.394Z,19.06
2023-05-12T18:44:04.301Z,18.54
2023-05-12T18:46:34.099Z,18.60
2023-05-12T18:49:04.129Z,18.23
2023-05-12T18:51:36.650Z,18.37
2023-05-12T18:54:06.738Z,18.16
2023-05-12T18:56:37.233Z,17.93
2023-05-12T18:59:07.181Z,18.02
2023-05-12T19:01:37.431Z,17.92
2023-05-12T19:04:07.536Z,17.73
2023-05-12T19:06:40.073Z,17.72
2023-05-12T19:09:09.888Z,17.79
2023-05-12T19:11:39.651Z,17.85
2023-05-12T19:14:09.738Z,17.75
2023-05-12T19:16:40.065Z,17.58
2023-05-12T19:19:10.253Z,17.58
2023-05-12T19:21:42.590Z,17.69
2023-05-12T19:24:12.758Z,17.68
2023-05-12T19:26:42.439Z,17.49
2023-05-12T19:29:12.287Z,17.51
2023-05-12T19:31:42.206Z,17.67
2023-05-12T19:34:12.321Z,17.53
2023-05-12T19:36:44.934Z,17.47
2023-05-12T19:39:14.749Z,17.37
2023-05-12T19:41:44.723Z,17.33
2023-05-12T19:44:14.557Z,17.47
2023-05-12T19:46:44.442Z,17.46
2023-05-12T19:49:14.248Z,17.37
2023-05-12T19:51:46.765Z,17.54
2023-05-12T19:54:16.569Z,17.34
2023-05-12T19:56:46.498Z,17.42
2023-05-12T19:59:16.272Z,17.48
2023-05-12T20:01:46.039Z,17.31
2023-05-12T20:04:15.997Z,17.35
2023-05-12T20:06:48.480Z,17.20
2023-05-12T20:09:20.757Z,17.38
2023-05-12T20:11:50.747Z,17.60
2023-05-12T20:14:20.541Z,17.36
2023-05-12T20:16:50.667Z,17.72
2023-05-12T20:19:20.486Z,17.48
2023-05-12T20:21:52.877Z,17.94
2023-05-12T20:24:22.975Z,17.77
2023-05-12T20:26:52.683Z,17.65
2023-05-12T20:29:23.481Z,17.51
2023-05-12T20:31:54.524Z,17.54
2023-05-12T20:34:24.317Z,17.54
2023-05-12T20:36:56.643Z,17.89
2023-05-12T20:39:26.996Z,18.36
2023-05-12T20:41:56.855Z,17.97
2023-05-12T20:44:27.281Z,17.47
2023-05-12T20:46:57.087Z,17.44
2023-05-12T20:49:26.998Z,18.01
2023-05-12T20:51:59.459Z,18.07
2023-05-12T20:54:29.153Z,18.69
2023-05-12T20:56:58.814Z,18.52
2023-05-12T20:59:28.494Z,17.17
2023-05-12T21:01:58.237Z,18.16
2023-05-12T21:04:27.920Z,17.25
2023-05-12T21:07:00.149Z,16.76
2023-05-12T21:09:29.832Z,17.08
2023-05-12T21:11:59.837Z,17.63
2023-05-12T21:14:29.588Z,17.52
2023-05-12T21:16:59.265Z,17.31
2023-05-12T21:19:29.010Z,16.20
2023-05-12T21:22:01.526Z,15.39
2023-05-12T21:24:31.335Z,15.55
2023-05-12T21:27:02.155Z,15.82
2023-05-12T21:29:31.968Z,15.57
2023-05-12T21:32:01.732Z,15.27
2023-05-12T21:34:33.779Z,15.39
2023-05-12T21:37:06.496Z,15.74
2023-05-12T21:39:36.192Z,15.21
2023-05-12T21:42:06.164Z,15.53
2023-05-12T21:44:35.832Z,15.61
2023-05-12T21:47:05.479Z,16.23
2023-05-12T21:49:35.100Z,15.47
2023-05-12T21:52:07.852Z,15.63
2023-05-12T21:54:37.655Z,15.87
2023-05-12T21:57:07.507Z,14.90
2023-05-12T21:59:37.143Z,15.51
2023-05-12T22:02:07.509Z,15.73
2023-05-12T22:04:37.334Z,15.24
2023-05-12T22:07:09.671Z,14.78
2023-05-12T22:09:39.380Z,15.79
2023-05-12T22:12:13.677Z,15.44
2023-05-12T22:14:43.614Z,14.57
2023-05-12T22:17:13.614Z,14.47
2023-05-12T22:19:43.312Z,14.40
2023-05-12T22:22:15.732Z,14.22
2023-05-12T22:24:45.879Z,15.13
2023-05-12T22:27:21.186Z,16.00
2023-05-12T22:29:51.222Z,15.55
2023-05-12T22:32:20.891Z,15.62
2023-05-12T22:34:51.050Z,15.75
2023-05-12T22:37:23.332Z,15.41
2023-05-12T22:39:53.031Z,15.58
2023-05-12T22:42:23.036Z,16.16
2023-05-12T22:44:53.017Z,16.46
2023-05-12T22:47:22.850Z,16.68
2023-05-12T22:49:52.547Z,16.85
2023-05-12T22:52:24.771Z,16.65
2023-05-12T22:54:54.882Z,15.49
2023-05-12T22:57:24.969Z,16.37
2023-05-12T22:59:54.608Z,16.23
2023-05-12T23:02:24.560Z,16.72
2023-05-12T23:04:54.256Z,16.34
2023-05-12T23:07:26.677Z,16.45
2023-05-12T23:09:56.368Z,16.35
2023-05-12T23:12:26.200Z,16.17
2023-05-12T23:14:55.849Z,16.26
2023-05-12T23:17:25.773Z,15.51
2023-05-12T23:19:56.437Z,15.85
2023-05-12T23:22:28.837Z,15.43
2023-05-12T23:24:58.522Z,15.38
2023-05-12T23:27:28.502Z,15.51
2023-05-12T23:29:58.147Z,15.51
2023-05-12T23:32:28.092Z,15.24
2023-05-12T23:34:57.894Z,15.26
2023-05-12T23:37:30.154Z,15.75
2023-05-12T23:40:00.073Z,15.87
2023-05-12T23:42:30.019Z,16.00
2023-05-12T23:44:59.852Z,15.95
2023-05-12T23:47:29.760Z,15.92
2023-05-12T23:49:59.468Z,15.69
2023-05-12T23:52:31.848Z,15.59
2023-05-12T23:55:01.612Z,15.22
2023-05-12T23:57:31.413Z,15.10
